Time;durP1;ratioP1;P1;durP2;ratioP2;P2;SDS_P1;SDS_P2;PMS_P1;PMS_P2;Temp;Humidity;BMP_temperature;BMP_pressure;BME280_temperature;BME280_humidity;BME280_pressure;Samples;Min_cycle;Max_cycle;Signal;HPM_P1;HPM_P2
2023/11/09 00:01:24;;;;;;;9.90;3.00;;;;;1.30;96933.00;;;;5117251;28;20457;-86
2023/11/09 00:04:13;;;;;;;11.40;3.37;;;;;1.40;96925.00;;;;5109774;28;20432;-87
2023/11/09 00:07:03;;;;;;;9.47;2.87;;;;;1.10;96918.00;;;;5112622;28;20417;-87
2023/11/09 00:09:52;;;;;;;10.33;3.10;;;;;1.10;96925.00;;;;5114127;28;20418;-85
2023/11/09 00:12:43;;;;;;;14.90;4.30;;;;;1.30;96929.00;;;;5104982;27;20794;-87
2023/11/09 00:15:32;;;;;;;18.80;5.10;;;;;1.30;96930.00;;;;5107706;28;20492;-86
2023/11/09 00:18:22;;;;;;;12.07;3.40;;;;;1.80;96931.00;;;;5098677;28;20964;-87
2023/11/09 00:21:11;;;;;;;8.80;2.90;;;;;2.10;96930.00;;;;5101754;28;20453;-87
2023/11/09 00:24:01;;;;;;;9.13;2.92;;;;;1.70;96918.00;;;;5102259;28;20401;-85
2023/11/09 00:26:51;;;;;;;8.50;2.60;;;;;1.60;96916.00;;;;5101255;28;20691;-87
2023/11/09 00:29:42;;;;;;;18.40;5.23;;;;;1.80;96905.00;;;;5115168;28;20432;-87
2023/11/09 00:32:31;;;;;;;17.60;5.13;;;;;1.60;96897.00;;;;5116905;28;20881;-87
2023/11/09 00:35:20;;;;;;;9.57;2.93;;;;;2.00;96909.00;;;;5111581;28;20499;-88
2023/11/09 00:38:14;;;;;;;8.87;2.70;;;;;2.20;96907.00;;;;5102797;28;20426;-88
2023/11/09 00:41:06;;;;;;;9.33;2.77;;;;;2.20;96905.00;;;;5104571;28;20459;-87
2023/11/09 00:43:55;;;;;;;7.87;2.57;;;;;1.50;96906.00;;;;5110698;28;20429;-87
2023/11/09 00:46:46;;;;;;;14.43;4.17;;;;;1.30;96901.00;;;;5107258;27;20432;-87
2023/11/09 00:49:35;;;;;;;15.63;4.53;;;;;1.20;96887.00;;;;5112562;28;20425;-88
2023/11/09 00:52:24;;;;;;;8.80;2.63;;;;;1.40;96875.00;;;;5118635;27;20449;-87
2023/11/09 00:55:13;;;;;;;7.77;2.43;;;;;1.20;96876.00;;;;5110007;28;20479;-88
2023/11/09 00:58:04;;;;;;;6.47;2.03;;;;;1.10;96880.00;;;;5121978;28;20424;-87
2023/11/09 01:00:53;;;;;;;8.77;2.63;;;;;1.60;96868.00;;;;5107801;28;20456;-86
2023/11/09 01:03:44;;;;;;;18.57;5.37;;;;;1.60;96871.00;;;;5107785;28;20428;-88
2023/11/09 01:06:33;;;;;;;19.47;5.50;;;;;1.20;96871.00;;;;5108524;28;20765;-88
2023/11/09 01:09:23;;;;;;;9.30;2.90;;;;;1.10;96859.00;;;;5113220;28;20433;-88
2023/11/09 01:12:12;;;;;;;10.57;3.27;;;;;1.00;96860.00;;;;5118720;28;20860;-87
2023/11/09 01:15:02;;;;;;;8.07;2.47;;;;;1.10;96861.00;;;;5112493;28;20464;-87
2023/11/09 01:18:05;;;;;;;9.77;2.97;;;;;0.80;96850.00;;;;5113880;28;20449;-88
2023/11/09 01:20:55;;;;;;;9.47;2.83;;;;;1.00;96852.00;;;;5113072;28;20445;-87
2023/11/09 01:23:44;;;;;;;14.93;4.40;;;;;0.80;96850.00;;;;5114540;28;20429;-88
2023/11/09 01:26:33;;;;;;;17.33;4.90;;;;;0.50;96833.00;;;;5111345;28;20393;-86
2023/11/09 01:29:22;;;;;;;16.52;4.97;;;;;0.60;96840.00;;;;5116660;28;20406;-87
2023/11/09 01:32:12;;;;;;;12.53;3.63;;;;;1.20;96836.00;;;;5115356;28;20706;-88
2023/11/09 01:35:01;;;;;;;8.50;2.67;;;;;0.90;96829.00;;;;5111995;28;20457;-87
2023/11/09 01:37:51;;;;;;;7.83;2.60;;;;;0.80;96822.00;;;;5116724;28;20467;-88
2023/11/09 01:40:40;;;;;;;10.53;3.43;;;;;0.60;96817.00;;;;5105189;28;20429;-88
2023/11/09 01:43:32;;;;;;;10.17;3.20;;;;;0.10;96805.00;;;;5110594;28;20436;-88
2023/11/09 01:46:21;;;;;;;8.40;2.83;;;;;0.70;96815.00;;;;5112103;28;20433;-87
2023/11/09 01:49:11;;;;;;;17.67;5.17;;;;;0.90;96826.00;;;;5118187;28;21012;-88
2023/11/09 01:52:00;;;;;;;9.63;3.07;;;;;1.00;96832.00;;;;5117126;28;20482;-87
2023/11/09 01:54:51;;;;;;;6.77;2.27;;;;;1.30;96814.00;;;;5111846;28;20479;-87
2023/11/09 01:57:41;;;;;;;16.23;4.83;;;;;0.80;96814.00;;;;5121687;28;20428;-88
2023/11/09 02:00:32;;;;;;;7.30;2.37;;;;;0.50;96829.00;;;;5113938;28;20448;-88
2023/11/09 02:03:21;;;;;;;13.53;3.93;;;;;0.80;96822.00;;;;5110654;28;20500;-87
2023/11/09 02:06:12;;;;;;;11.07;3.43;;;;;0.80;96819.00;;;;5108495;28;20437;-86
2023/11/09 02:09:02;;;;;;;10.27;3.27;;;;;1.00;96820.00;;;;5108850;28;20436;-85
2023/11/09 02:11:53;;;;;;;9.37;2.97;;;;;1.70;96824.00;;;;5104485;28;20472;-87
2023/11/09 02:14:42;;;;;;;12.73;3.58;;;;;1.00;96812.00;;;;5114141;28;20384;-86
2023/11/09 02:17:31;;;;;;;17.73;5.33;;;;;1.10;96807.00;;;;5117588;28;20424;-89
2023/11/09 02:20:22;;;;;;;6.40;2.37;;;;;0.70;96798.00;;;;5111072;28;20437;-86
2023/11/09 02:23:11;;;;;;;6.40;2.20;;;;;0.70;96797.00;;;;5115895;28;20444;-88
2023/11/09 02:26:02;;;;;;;8.30;2.80;;;;;0.90;96798.00;;;;5114241;28;20421;-87
2023/11/09 02:28:54;;;;;;;7.27;2.60;;;;;0.60;96784.00;;;;5113745;28;20851;-88
2023/11/09 02:31:43;;;;;;;10.43;3.63;;;;;0.50;96789.00;;;;5120210;28;20935;-88
2023/11/09 02:34:37;;;;;;;13.80;4.40;;;;;0.40;96783.00;;;;5116562;28;20444;-87
2023/11/09 02:37:26;;;;;;;16.13;5.07;;;;;0.30;96771.00;;;;5124159;28;20429;-88
2023/11/09 02:40:16;;;;;;;8.53;3.00;;;;;0.50;96773.00;;;;5113298;28;20657;-88
2023/11/09 02:43:08;;;;;;;8.40;2.87;;;;;0.90;96787.00;;;;5120594;28;20413;-88
2023/11/09 02:45:58;;;;;;;6.63;2.23;;;;;0.90;96777.00;;;;5115741;28;20444;-87
2023/11/09 02:48:47;;;;;;;7.13;2.60;;;;;1.20;96778.00;;;;5113219;28;20417;-85
2023/11/09 02:51:36;;;;;;;12.43;3.93;;;;;1.00;96771.00;;;;5117533;28;20455;-87
2023/11/09 02:54:26;;;;;;;9.30;3.07;;;;;1.40;96767.00;;;;5106598;28;20453;-87
2023/11/09 02:57:15;;;;;;;14.20;4.10;;;;;0.90;96762.00;;;;5114397;28;20439;-87
2023/11/09 03:00:07;;;;;;;7.30;2.40;;;;;0.60;96755.00;;;;5118094;28;20508;-88
2023/11/09 03:02:56;;;;;;;7.90;2.60;;;;;0.80;96756.00;;;;5116649;28;20425;-88
2023/11/09 03:05:45;;;;;;;17.00;5.13;;;;;1.00;96760.00;;;;5117083;28;20757;-87
2023/11/09 03:08:35;;;;;;;16.07;4.50;;;;;0.80;96749.00;;;;5113869;28;20929;-88
2023/11/09 03:11:24;;;;;;;12.63;3.93;;;;;0.90;96749.00;;;;5122411;28;20446;-87
2023/11/09 03:14:14;;;;;;;10.73;3.30;;;;;0.90;96745.00;;;;5118185;28;20798;-88
2023/11/09 03:17:07;;;;;;;8.87;2.80;;;;;0.80;96748.00;;;;5118484;28;20454;-87
2023/11/09 03:19:57;;;;;;;9.57;3.00;;;;;0.50;96733.00;;;;5120686;28;20455;-89
2023/11/09 03:22:47;;;;;;;15.40;4.57;;;;;0.30;96731.00;;;;5120379;28;20416;-87
2023/11/09 03:25:36;;;;;;;16.53;4.87;;;;;0.10;96731.00;;;;5130287;28;20438;-87
2023/11/09 03:28:26;;;;;;;10.77;3.33;;;;;0.60;96732.00;;;;5133559;28;20411;-87
2023/11/09 03:31:15;;;;;;;9.63;3.10;;;;;1.00;96728.00;;;;5124614;28;20448;-86
2023/11/09 03:34:05;;;;;;;8.83;2.83;;;;;0.90;96719.00;;;;5130660;28;20417;-87
2023/11/09 03:36:55;;;;;;;10.10;3.23;;;;;1.10;96718.00;;;;5131004;28;20436;-87
2023/11/09 03:39:44;;;;;;;16.00;4.87;;;;;1.40;96721.00;;;;5133756;28;20613;-86
2023/11/09 03:42:34;;;;;;;15.77;4.77;;;;;0.90;96709.00;;;;5126317;28;20453;-89
2023/11/09 03:45:23;;;;;;;11.00;3.40;;;;;0.80;96710.00;;;;5124037;28;20429;-87
2023/11/09 03:48:14;;;;;;;7.33;2.47;;;;;1.20;96711.00;;;;5134118;27;20437;-87
2023/11/09 03:51:05;;;;;;;7.13;2.57;;;;;1.20;96715.00;;;;5124337;28;20438;-86
2023/11/09 03:53:54;;;;;;;4.83;1.77;;;;;1.10;96711.00;;;;5125173;28;20430;-86
2023/11/09 03:56:44;;;;;;;14.43;4.57;;;;;1.20;96705.00;;;;5128996;28;20459;-87
2023/11/09 03:59:33;;;;;;;13.07;3.93;;;;;0.60;96709.00;;;;5117709;28;20677;-87
2023/11/09 04:02:22;;;;;;;13.10;3.87;;;;;0.60;96703.00;;;;5121686;28;20445;-86
2023/11/09 04:05:13;;;;;;;6.30;2.03;;;;;1.00;96705.00;;;;5131995;28;20436;-87
2023/11/09 04:08:03;;;;;;;10.43;3.23;;;;;1.10;96696.00;;;;5128745;27;20442;-85
2023/11/09 04:10:52;;;;;;;9.73;3.00;;;;;1.00;96690.00;;;;5122235;28;20455;-86
2023/11/09 04:13:41;;;;;;;12.87;3.93;;;;;1.40;96695.00;;;;5122200;28;20425;-87
2023/11/09 04:16:30;;;;;;;13.97;4.27;;;;;1.20;96691.00;;;;5122601;28;20472;-87
2023/11/09 04:19:20;;;;;;;14.23;4.40;;;;;1.30;96688.00;;;;5122051;28;20448;-86
2023/11/09 04:22:09;;;;;;;6.23;2.03;;;;;0.90;96669.00;;;;5126055;28;20452;-87
2023/11/09 04:25:00;;;;;;;10.10;3.27;;;;;1.40;96671.00;;;;5117602;28;20418;-87
2023/11/09 04:27:49;;;;;;;7.63;2.67;;;;;1.10;96676.00;;;;5120199;28;20445;-86
2023/11/09 04:30:38;;;;;;;13.50;4.20;;;;;0.90;96669.00;;;;5124369;28;20436;-87
2023/11/09 04:33:27;;;;;;;9.77;3.20;;;;;0.90;96666.00;;;;5120272;28;20438;-84
2023/11/09 04:36:17;;;;;;;7.40;2.67;;;;;0.70;96666.00;;;;5119082;28;20461;-83
2023/11/09 04:39:07;;;;;;;11.40;3.67;;;;;1.20;96667.00;;;;5127683;28;20432;-84
2023/11/09 04:41:58;;;;;;;6.87;2.33;;;;;0.60;96658.00;;;;5128803;28;20449;-85
2023/11/09 04:44:47;;;;;;;7.87;2.70;;;;;0.60;96665.00;;;;5128458;28;20407;-84
2023/11/09 04:47:36;;;;;;;13.87;4.50;;;;;0.80;96663.00;;;;5127858;27;20440;-84
2023/11/09 04:50:30;;;;;;;9.20;3.13;;;;;0.80;96663.00;;;;5129291;27;20445;-86
2023/11/09 04:53:30;;;;;;;4.03;1.67;;;;;0.50;96655.00;;;;5123383;28;20464;-85
2023/11/09 04:56:39;;;;;;;7.47;2.70;;;;;1.30;96655.00;;;;5122847;28;20465;-84
2023/11/09 05:08:48;;;;;;;9.37;3.70;;;;;1.30;96642.00;;;;5126351;28;20445;-84
2023/11/09 05:11:37;;;;;;;7.87;3.00;;;;;1.40;96636.00;;;;5119164;28;20448;-86
2023/11/09 05:14:28;;;;;;;4.20;1.83;;;;;0.90;96631.00;;;;5117347;28;20448;-83
2023/11/09 05:17:17;;;;;;;9.23;3.37;;;;;1.30;96639.00;;;;5122541;28;20457;-83
2023/11/09 05:20:11;;;;;;;5.57;2.33;;;;;1.10;96634.00;;;;5121156;28;20464;-84
2023/11/09 05:23:00;;;;;;;7.73;2.93;;;;;0.80;96640.00;;;;5125420;28;20431;-83
2023/11/09 05:25:50;;;;;;;6.80;2.77;;;;;0.40;96643.00;;;;5117702;28;20436;-84
2023/11/09 05:28:39;;;;;;;8.73;3.33;;;;;0.90;96640.00;;;;5130284;28;20401;-84
2023/11/09 05:31:30;;;;;;;7.27;3.00;;;;;0.60;96635.00;;;;5129010;28;20937;-84
2023/11/09 05:34:19;;;;;;;6.97;2.83;;;;;1.00;96635.00;;;;5123689;28;20442;-84
2023/11/09 05:37:08;;;;;;;6.60;2.63;;;;;1.00;96644.00;;;;5130270;28;20449;-83
2023/11/09 05:39:57;;;;;;;6.40;2.57;;;;;1.10;96644.00;;;;5119253;28;20496;-84
2023/11/09 05:42:46;;;;;;;9.83;3.87;;;;;1.00;96641.00;;;;5128233;28;21009;-84
2023/11/09 05:45:35;;;;;;;11.53;4.27;;;;;0.70;96626.00;;;;5124982;28;20416;-84
2023/11/09 05:48:25;;;;;;;8.40;3.27;;;;;0.90;96632.00;;;;5125873;28;20440;-84
2023/11/09 05:51:15;;;;;;;4.33;1.87;;;;;0.40;96627.00;;;;5126320;28;20478;-84
2023/11/09 05:54:04;;;;;;;7.03;2.80;;;;;0.50;96633.00;;;;5124154;28;20421;-84
2023/11/09 05:56:53;;;;;;;4.53;2.00;;;;;0.90;96633.00;;;;5117146;28;20476;-82
2023/11/09 05:59:44;;;;;;;10.10;3.87;;;;;1.00;96631.00;;;;5108170;28;20452;-87
2023/11/09 06:02:33;;;;;;;5.87;2.47;;;;;1.30;96634.00;;;;5113920;28;20457;-86
2023/11/09 06:05:24;;;;;;;9.43;3.60;;;;;1.40;96630.00;;;;5110728;28;20449;-87
2023/11/09 06:08:14;;;;;;;6.10;2.57;;;;;1.60;96631.00;;;;5118523;28;20571;-86
2023/11/09 06:11:04;;;;;;;3.90;1.83;;;;;1.80;96632.00;;;;5127365;28;20444;-83
2023/11/09 06:13:55;;;;;;;5.97;2.37;;;;;1.80;96630.00;;;;5125627;28;20805;-84
2023/11/09 06:16:44;;;;;;;10.43;3.97;;;;;0.80;96618.00;;;;5122593;27;20476;-83
2023/11/09 06:19:33;;;;;;;6.33;2.50;;;;;1.00;96631.00;;;;5123385;28;20830;-85
2023/11/09 06:22:24;;;;;;;8.30;3.17;;;;;0.80;96621.00;;;;5126906;28;20464;-84
2023/11/09 06:25:14;;;;;;;5.03;2.07;;;;;0.80;96621.00;;;;5108445;28;20424;-87
2023/11/09 06:28:04;;;;;;;6.27;2.70;;;;;0.10;96608.00;;;;5111909;28;20434;-86
2023/11/09 06:30:53;;;;;;;10.07;4.07;;;;;-0.20;96614.00;;;;5099595;28;20837;-86
2023/11/09 06:33:42;;;;;;;12.70;4.90;;;;;0.40;96613.00;;;;5098111;28;20444;-85
2023/11/09 06:36:32;;;;;;;24.03;8.90;;;;;0.60;96619.00;;;;5101066;28;20414;-83
2023/11/09 06:39:22;;;;;;;7.57;3.03;;;;;0.70;96610.00;;;;5103968;28;23048;-87
2023/11/09 06:42:11;;;;;;;6.13;2.53;;;;;0.70;96604.00;;;;5114132;28;20484;-84
2023/11/09 06:45:00;;;;;;;6.20;2.50;;;;;1.60;96613.00;;;;5115688;28;20456;-87
2023/11/09 06:47:49;;;;;;;11.60;4.60;;;;;1.30;96602.00;;;;5114986;27;20428;-84
2023/11/09 06:50:39;;;;;;;13.73;5.00;;;;;1.00;96597.00;;;;5118793;28;20845;-84
2023/11/09 06:53:28;;;;;;;6.93;2.80;;;;;1.20;96588.00;;;;5123711;28;20449;-84
2023/11/09 06:56:18;;;;;;;6.20;2.47;;;;;1.10;96583.00;;;;5127429;28;20440;-84
2023/11/09 06:59:08;;;;;;;10.30;3.87;;;;;0.70;96584.00;;;;5119350;28;20441;-85
2023/11/09 07:01:57;;;;;;;6.43;2.60;;;;;1.10;96588.00;;;;5126352;28;21000;-85
2023/11/09 07:04:46;;;;;;;12.47;4.67;;;;;1.30;96586.00;;;;5118327;28;20429;-86
2023/11/09 07:07:36;;;;;;;10.03;3.67;;;;;1.20;96577.00;;;;5118626;28;20436;-83
2023/11/09 07:10:25;;;;;;;6.70;2.67;;;;;1.10;96570.00;;;;5115482;28;20925;-85
2023/11/09 07:13:16;;;;;;;6.33;2.60;;;;;1.40;96587.00;;;;5121508;28;20447;-84
2023/11/09 07:16:07;;;;;;;5.70;2.20;;;;;1.90;96576.00;;;;5121209;28;20438;-85
2023/11/09 07:18:56;;;;;;;4.87;2.07;;;;;2.30;96592.00;;;;5124500;28;20468;-84
2023/11/09 07:21:45;;;;;;;9.77;3.70;;;;;2.30;96592.00;;;;5124755;28;20996;-84
2023/11/09 07:24:37;;;;;;;5.97;2.47;;;;;2.40;96586.00;;;;5122568;28;20436;-83
2023/11/09 07:27:26;;;;;;;15.00;5.40;;;;;2.50;96583.00;;;;5121116;28;20433;-84
2023/11/09 07:30:18;;;;;;;6.70;2.63;;;;;1.90;96579.00;;;;5118423;28;20447;-85
2023/11/09 07:33:07;;;;;;;4.07;1.93;;;;;1.80;96565.00;;;;5125612;28;20440;-84
2023/11/09 07:35:57;;;;;;;5.30;2.30;;;;;2.30;96570.00;;;;5128294;28;20420;-91
2023/11/09 07:38:47;;;;;;;10.10;4.03;;;;;2.00;96571.00;;;;5119371;27;20475;-87
2023/11/09 07:41:36;;;;;;;12.10;4.63;;;;;2.40;96565.00;;;;5131851;27;20464;-83
2023/11/09 07:44:26;;;;;;;4.60;2.10;;;;;2.60;96559.00;;;;5120173;28;20452;-81
2023/11/09 07:47:17;;;;;;;7.90;3.07;;;;;1.60;96551.00;;;;5122213;28;20433;-85
2023/11/09 07:50:09;;;;;;;6.47;2.70;;;;;2.60;96568.00;;;;5123009;28;20788;-81
2023/11/09 07:52:58;;;;;;;5.20;2.17;;;;;3.00;96561.00;;;;5124759;28;20456;-83
2023/11/09 07:55:48;;;;;;;12.57;4.90;;;;;3.30;96567.00;;;;5117933;28;20435;-81
2023/11/09 07:58:38;;;;;;;7.50;3.17;;;;;3.00;96560.00;;;;5122359;28;20464;-81
2023/11/09 08:01:27;;;;;;;17.83;6.57;;;;;3.20;96549.00;;;;5115667;27;20925;-84
2023/11/09 08:04:18;;;;;;;6.73;2.67;;;;;4.00;96565.00;;;;5128694;28;20432;-83
2023/11/09 08:07:07;;;;;;;6.40;2.67;;;;;4.40;96565.00;;;;5126177;28;20513;-82
2023/11/09 08:09:56;;;;;;;13.98;4.45;;;;;4.60;96560.00;;;;5122895;28;20408;-82
2023/11/09 08:12:45;;;;;;;10.27;4.07;;;;;4.80;96553.00;;;;5117488;28;20301;-82
2023/11/09 08:15:35;;;;;;;7.83;3.10;;;;;5.20;96550.00;;;;5124551;28;20202;-82
2023/11/09 08:18:24;;;;;;;6.67;2.60;;;;;5.10;96551.00;;;;5128451;28;20222;-83
2023/11/09 08:21:15;;;;;;;10.03;4.00;;;;;5.00;96543.00;;;;5128226;28;20859;-82
2023/11/09 08:24:04;;;;;;;6.50;2.53;;;;;4.70;96558.00;;;;5113897;28;20198;-82
2023/11/09 08:26:53;;;;;;;7.20;2.83;;;;;4.50;96554.00;;;;5124727;28;20207;-81
2023/11/09 08:29:43;;;;;;;11.67;4.47;;;;;4.70;96557.00;;;;5102223;28;20199;-85
2023/11/09 08:32:32;;;;;;;4.63;1.83;;;;;5.70;96560.00;;;;5104120;28;20348;-85
2023/11/09 08:35:24;;;;;;;6.27;2.60;;;;;5.60;96562.00;;;;5103032;28;20217;-85
2023/11/09 08:38:14;;;;;;;6.07;2.33;;;;;6.00;96566.00;;;;5107144;28;20319;-85
2023/11/09 08:41:05;;;;;;;6.00;2.47;;;;;6.10;96571.00;;;;5102349;27;20242;-85
2023/11/09 08:43:55;;;;;;;5.47;2.37;;;;;5.40;96552.00;;;;5103791;27;20222;-87
2023/11/09 08:46:44;;;;;;;11.80;4.60;;;;;4.90;96547.00;;;;5104152;28;20226;-84
2023/11/09 08:49:33;;;;;;;5.83;2.50;;;;;5.20;96546.00;;;;5102329;28;20580;-84
2023/11/09 08:52:23;;;;;;;9.33;3.57;;;;;5.70;96537.00;;;;5103441;28;20223;-84
2023/11/09 08:55:14;;;;;;;4.63;1.97;;;;;6.90;96540.00;;;;5101984;28;20221;-83
2023/11/09 08:58:03;;;;;;;6.63;2.67;;;;;7.50;96542.00;;;;5105346;28;20229;-85
2023/11/09 09:00:53;;;;;;;5.93;2.43;;;;;7.70;96547.00;;;;5101657;27;20260;-84
2023/11/09 09:03:43;;;;;;;9.13;3.50;;;;;8.10;96534.00;;;;5111042;28;20202;-83
2023/11/09 09:06:32;;;;;;;5.50;2.23;;;;;8.60;96545.00;;;;5110796;28;20675;-81
2023/11/09 09:09:23;;;;;;;7.33;2.90;;;;;8.20;96528.00;;;;5102401;28;20562;-83
2023/11/09 09:12:15;;;;;;;6.83;2.67;;;;;8.20;96533.00;;;;5106884;28;20223;-82
2023/11/09 09:15:12;;;;;;;5.20;2.07;;;;;8.60;96536.00;;;;5101613;28;20219;-82
2023/11/09 09:18:02;;;;;;;3.87;1.63;;;;;8.90;96545.00;;;;5105112;27;20211;-83
2023/11/09 09:20:51;;;;;;;9.40;3.67;;;;;8.80;96529.00;;;;5094296;28;20272;-83
2023/11/09 09:23:41;;;;;;;9.50;3.53;;;;;8.90;96522.00;;;;5102879;28;20207;-83
2023/11/09 09:26:33;;;;;;;6.03;2.43;;;;;9.40;96542.00;;;;5106765;28;20556;-84
2023/11/09 09:29:24;;;;;;;8.67;3.37;;;;;9.20;96539.00;;;;5106769;28;20205;-83
2023/11/09 09:32:15;;;;;;;7.00;2.60;;;;;9.10;96522.00;;;;5101478;28;20238;-83
2023/11/09 09:35:06;;;;;;;5.03;1.97;;;;;9.50;96532.00;;;;5098952;28;20612;-82
2023/11/09 09:37:57;;;;;;;7.37;2.90;;;;;9.80;96540.00;;;;5093482;28;20210;-82
2023/11/09 09:40:49;;;;;;;11.40;4.47;;;;;9.40;96525.00;;;;5095015;27;20225;-81
2023/11/09 09:43:39;;;;;;;5.30;2.20;;;;;10.20;96534.00;;;;5103661;28;20259;-82
2023/11/09 09:46:30;;;;;;;6.17;2.43;;;;;10.50;96524.00;;;;5105902;28;20206;-83
2023/11/09 09:49:19;;;;;;;9.47;3.67;;;;;10.90;96518.00;;;;5098744;27;20199;-83
2023/11/09 09:52:08;;;;;;;5.43;2.13;;;;;10.90;96509.00;;;;5104394;28;20631;-81
2023/11/09 09:54:57;;;;;;;6.73;2.67;;;;;10.90;96503.00;;;;5109450;28;20203;-82
2023/11/09 09:57:48;;;;;;;5.73;2.30;;;;;11.40;96503.00;;;;5102931;27;20207;-80
2023/11/09 10:00:38;;;;;;;6.43;2.43;;;;;11.50;96502.00;;;;5104534;28;20698;-82
2023/11/09 10:03:30;;;;;;;5.90;2.33;;;;;11.70;96508.00;;;;5101353;27;20667;-82
2023/11/09 10:06:21;;;;;;;5.43;2.33;;;;;11.90;96495.00;;;;5096556;28;20220;-82
2023/11/09 10:09:11;;;;;;;12.30;4.77;;;;;11.60;96496.00;;;;5094809;28;20210;-84
2023/11/09 10:12:02;;;;;;;6.40;2.57;;;;;12.20;96501.00;;;;5097060;28;20598;-83
2023/11/09 10:14:51;;;;;;;10.93;4.20;;;;;12.60;96494.00;;;;5098677;28;20207;-83
2023/11/09 10:17:40;;;;;;;10.07;3.87;;;;;12.70;96480.00;;;;5100865;28;20215;-83
2023/11/09 10:20:32;;;;;;;5.63;2.20;;;;;12.70;96496.00;;;;5098060;28;20226;-83
2023/11/09 10:23:21;;;;;;;5.17;2.07;;;;;12.90;96493.00;;;;5099845;28;20580;-84
2023/11/09 10:26:11;;;;;;;5.20;2.20;;;;;12.90;96490.00;;;;5093555;28;20698;-84
2023/11/09 10:29:02;;;;;;;5.80;2.40;;;;;12.80;96487.00;;;;5104938;28;20249;-84
2023/11/09 10:31:51;;;;;;;7.50;3.30;;;;;13.00;96489.00;;;;5099199;28;20223;-83
2023/11/09 10:34:43;;;;;;;7.87;3.23;;;;;12.70;96465.00;;;;5096720;28;20210;-84
2023/11/09 10:37:37;;;;;;;7.53;3.10;;;;;12.60;96457.00;;;;5102609;28;20214;-82
2023/11/09 10:40:29;;;;;;;9.30;3.80;;;;;13.50;96454.00;;;;5104798;28;20232;-82
2023/11/09 10:43:18;;;;;;;6.53;2.63;;;;;13.50;96457.00;;;;5095167;28;20759;-81
2023/11/09 10:46:08;;;;;;;4.97;2.10;;;;;14.40;96447.00;;;;5094739;28;20203;-83
2023/11/09 10:48:58;;;;;;;6.50;2.73;;;;;14.80;96449.00;;;;5099042;28;20203;-83
2023/11/09 10:51:50;;;;;;;11.07;4.47;;;;;14.80;96442.00;;;;5098941;28;20711;-82
2023/11/09 10:54:44;;;;;;;6.67;2.73;;;;;15.30;96432.00;;;;5101740;28;20206;-83
2023/11/09 10:57:36;;;;;;;9.10;3.67;;;;;15.20;96418.00;;;;5092908;28;20304;-82
2023/11/09 11:00:31;;;;;;;4.33;1.87;;;;;15.90;96423.00;;;;5099762;28;20223;-84
2023/11/09 11:03:27;;;;;;;6.33;2.60;;;;;16.70;96422.00;;;;5096751;28;20671;-83
2023/11/09 11:06:20;;;;;;;3.67;1.53;;;;;16.50;96418.00;;;;5102126;28;20228;-82
2023/11/09 11:09:18;;;;;;;9.07;3.60;;;;;16.80;96427.00;;;;5102600;28;20581;-84
2023/11/09 11:12:10;;;;;;;4.97;2.03;;;;;17.30;96422.00;;;;5103910;28;20601;-83
2023/11/09 11:15:00;;;;;;;4.90;2.07;;;;;17.30;96405.00;;;;5109074;28;21405;-84
2023/11/09 11:17:57;;;;;;;10.53;4.10;;;;;17.60;96418.00;;;;5101859;28;20215;-83
2023/11/09 11:21:06;;;;;;;10.40;3.93;;;;;17.60;96415.00;;;;5101690;28;20234;-84
2023/11/09 11:24:15;;;;;;;7.43;2.70;;;;;18.00;96401.00;;;;5102890;28;20222;-85
2023/11/09 11:27:11;;;;;;;6.67;2.47;;;;;18.20;96404.00;;;;5099236;28;20227;-83
2023/11/09 11:30:00;;;;;;;7.23;2.43;;;;;18.50;96411.00;;;;5103510;28;20211;-83
2023/11/09 11:32:49;;;;;;;15.33;4.87;;;;;18.30;96404.00;;;;5108465;27;20203;-84
2023/11/09 11:35:42;;;;;;;13.00;4.17;;;;;17.50;96403.00;;;;5105598;28;20211;-83
2023/11/09 11:38:33;;;;;;;12.20;3.83;;;;;17.80;96398.00;;;;5111480;28;20199;-84
2023/11/09 11:41:22;;;;;;;8.27;2.87;;;;;18.20;96402.00;;;;5108957;28;20236;-84
2023/11/09 11:44:13;;;;;;;9.47;3.07;;;;;18.50;96390.00;;;;5115382;27;20199;-84
2023/11/09 11:47:03;;;;;;;11.57;3.70;;;;;18.50;96394.00;;;;5111574;28;20205;-85
2023/11/09 11:49:52;;;;;;;24.30;8.20;;;;;19.40;96392.00;;;;5110785;28;20217;-84
2023/11/09 11:52:41;;;;;;;21.27;8.67;;;;;16.10;96372.00;;;;5114741;28;20255;-83
2023/11/09 11:55:35;;;;;;;12.17;4.97;;;;;16.00;96367.00;;;;5111658;27;20203;-83
2023/11/09 11:58:27;;;;;;;6.30;3.27;;;;;15.90;96373.00;;;;5103072;28;20211;-84
2023/11/09 12:01:20;;;;;;;7.97;3.50;;;;;17.40;96384.00;;;;5115418;28;20227;-83
2023/11/09 12:04:11;;;;;;;10.90;4.43;;;;;17.90;96380.00;;;;5112864;27;20369;-84
2023/11/09 12:07:02;;;;;;;16.57;7.20;;;;;18.10;96390.00;;;;5108009;28;20253;-85
2023/11/09 12:09:55;;;;;;;25.40;13.47;;;;;17.90;96372.00;;;;5109011;28;20225;-84
2023/11/09 12:12:56;;;;;;;33.03;28.80;;;;;18.70;96375.00;;;;5112955;28;20228;-84
2023/11/09 12:15:45;;;;;;;68.37;63.23;;;;;18.40;96369.00;;;;5105251;28;20202;-85
2023/11/09 12:18:36;;;;;;;9.07;2.97;;;;;19.70;96384.00;;;;5106263;27;20218;-84
2023/11/09 12:21:27;;;;;;;9.60;3.23;;;;;19.50;96391.00;;;;5106901;28;20235;-83
2023/11/09 12:24:21;;;;;;;10.47;3.30;;;;;19.30;96377.00;;;;5111381;28;20210;-83
2023/11/09 12:27:10;;;;;;;7.57;2.57;;;;;19.50;96394.00;;;;5108163;27;20218;-84
2023/11/09 12:30:02;;;;;;;9.20;3.03;;;;;18.70;96370.00;;;;5105348;27;20624;-83
2023/11/09 12:32:54;;;;;;;12.80;4.27;;;;;18.80;96376.00;;;;5104026;27;20204;-84
2023/11/09 12:36:11;;;;;;;17.57;5.83;;;;;15.30;96381.00;;;;5105344;27;20624;-84
2023/11/09 12:39:02;;;;;;;10.17;3.40;;;;;16.60;96365.00;;;;5082750;28;20205;-85
2023/11/09 12:41:52;;;;;;;11.00;3.57;;;;;17.20;96350.00;;;;5100242;28;20254;-85
2023/11/09 12:44:43;;;;;;;7.50;2.50;;;;;18.10;96366.00;;;;5107819;28;20207;-85
2023/11/09 12:47:32;;;;;;;9.60;3.30;;;;;18.00;96356.00;;;;5108993;28;20202;-84
2023/11/09 12:50:21;;;;;;;10.30;3.60;;;;;18.20;96358.00;;;;5104459;28;20206;-83
2023/11/09 12:53:15;;;;;;;7.13;2.40;;;;;18.90;96323.00;;;;5118957;28;20200;-84
2023/11/09 12:56:04;;;;;;;4.43;1.57;;;;;19.30;96331.00;;;;5115639;28;20199;-83
2023/11/09 12:58:54;;;;;;;17.07;5.70;;;;;18.80;96347.00;;;;5099032;28;20211;-84
2023/11/09 13:01:43;;;;;;;10.23;3.47;;;;;18.70;96337.00;;;;5105582;28;20241;-84
2023/11/09 13:04:41;;;;;;;11.20;3.83;;;;;18.10;96319.00;;;;5109430;28;20203;-85
2023/11/09 13:07:30;;;;;;;10.43;3.43;;;;;18.60;96314.00;;;;5108063;28;20684;-84
2023/11/09 13:10:23;;;;;;;11.73;3.83;;;;;18.50;96312.00;;;;5104227;27;20272;-85
2023/11/09 13:13:23;;;;;;;8.43;2.87;;;;;18.40;96343.00;;;;5107820;28;20607;-84
2023/11/09 13:16:14;;;;;;;6.87;2.33;;;;;18.40;96333.00;;;;5103269;28;20697;-84
2023/11/09 13:19:04;;;;;;;5.97;2.17;;;;;17.60;96336.00;;;;5112281;27;20218;-84
2023/11/09 13:22:00;;;;;;;8.43;2.97;;;;;17.30;96328.00;;;;5109773;27;20234;-84
2023/11/09 13:24:53;;;;;;;13.60;4.43;;;;;17.10;96337.00;;;;5109275;28;20206;-84
2023/11/09 13:27:44;;;;;;;11.00;3.70;;;;;16.40;96325.00;;;;5106401;28;20596;-83
2023/11/09 13:30:33;;;;;;;6.67;2.37;;;;;15.70;96323.00;;;;5114431;27;20217;-85
2023/11/09 13:36:42;;;;;;;6.63;2.40;;;;;13.70;96316.00;;;;5111169;28;20682;-84
2023/11/09 13:39:49;;;;;;;5.55;2.10;;;;;13.00;96300.00;;;;5114075;28;20204;-84
2023/11/09 13:42:38;;;;;;;6.03;2.20;;;;;14.00;96307.00;;;;5105694;28;20237;-84
2023/11/09 13:45:34;;;;;;;6.50;2.43;;;;;13.80;96307.00;;;;5102432;28;20202;-84
2023/11/09 13:48:25;;;;;;;5.97;2.30;;;;;14.40;96294.00;;;;5114515;28;20569;-84
2023/11/09 13:51:15;;;;;;;4.83;1.80;;;;;14.40;96292.00;;;;5110368;28;20225;-83
2023/11/09 13:54:23;;;;;;;5.30;2.00;;;;;13.20;96285.00;;;;5114330;28;20591;-82
2023/11/09 13:57:19;;;;;;;7.47;2.70;;;;;13.50;96284.00;;;;5101163;28;20206;-83
2023/11/09 14:00:24;;;;;;;5.37;2.10;;;;;14.20;96278.00;;;;5105372;28;20251;-82
2023/11/09 14:03:17;;;;;;;5.17;2.00;;;;;13.80;96275.00;;;;5108745;28;20194;-81
2023/11/09 14:06:12;;;;;;;3.67;1.50;;;;;13.50;96276.00;;;;5107563;28;20211;-83
2023/11/09 14:09:01;;;;;;;5.27;2.10;;;;;13.30;96271.00;;;;5106800;28;20225;-83
2023/11/09 14:11:57;;;;;;;9.13;2.97;;;;;12.20;96273.00;;;;5108708;28;20387;-82
2023/11/09 14:14:48;;;;;;;8.67;3.07;;;;;12.40;96274.00;;;;5107139;28;20203;-82
2023/11/09 14:17:38;;;;;;;4.57;1.73;;;;;12.60;96269.00;;;;5100299;28;20566;-81
2023/11/09 14:20:33;;;;;;;6.03;2.23;;;;;12.80;96277.00;;;;5111952;27;20203;-80
2023/11/09 14:23:24;;;;;;;4.23;1.70;;;;;11.70;96273.00;;;;5101363;28;20202;-83
2023/11/09 14:26:13;;;;;;;4.70;1.90;;;;;11.90;96270.00;;;;5106198;28;20210;-81
2023/11/09 14:29:05;;;;;;;5.90;2.40;;;;;12.50;96271.00;;;;5095943;28;20675;-83
2023/11/09 14:31:55;;;;;;;7.17;2.80;;;;;11.90;96255.00;;;;5108087;28;20219;-83